Kezdőlap
METAR-TAF:

METAR-TAF

Repülőterek :

Johannesburg, Dél-afrikai Köztársaság

földrajzi szélesség: 26-09S, földrajzi hosszúság: 28-00E, magasság: 1626 m

Jelenlegi meteorológiai megfigyelések

A jelentés 33 perccel ezelõtt készült, 11:00 UTC
Észak-északnyugati szél 3 kt
Hőmérséklet 30°C
Páratartalom 33%
Légköri nyomás 1018 hPa

METAR: FAJB 051100Z AUTO 33003KT //// // ////// 30/12 Q1018

Idő: 13:33 (11:33 UTC)


TAF: hiányzik

Meteorológiai megfigyelések és előrejelzések több, mint 4000 repülőtéren (METAR és TAF jelentéseket).

A térképen piros és sárga pontok jelzik az elérhető meteorológiai állomásokat.

Mozgassa az egeret a pont fölött, hogy megjelenjen az állomás neve.

Azután kattintson az időjárási megfigyelések és előrejelzések megtekintéséhez.

A térkép megváltoztatása: kattintson a fekete keresztel jelölt zöld gombra ráközelítéshez, a vonallal jelölt zöld gombra távolításhoz, vagy a zöld nyilakra a szomszédos térképek eléréséhez.


METAR-TAF: